Pleasantville, Iowa
Current Conditions -  °F | °C
As of 10:55 PM on Saturday 25 Oct 2014 (Local Time) from KOXV Reporting Station
Clear Clear  
Wind Chill: 54°   Ceiling: Unl
Heat Index: 54°   Visibility: 10mi
Dew Point: 37°   Wind: 0mph
Humidity: 54%   Direction: NA
Pressure: 30.06"   Gusts: NA
Location:  41.39°N, 93.27°W
Report Text: KOXV 260355Z AUTO 00000KT 10SM CLR 12/03 A3006 RMK AO2
Loading
Personal Weather Stations






























Interactive Weather Map
Tropical Storm Tracking
New forecast layout! Learn more

10-Day Weather Forecast

Advertisements
Track Severe Weather on mobile